Houston, Texas
Traffic Map
Current Weather Conditions
Houston, Texas
Broken Clouds
Broken Clouds
84°
Feels Like: 91°
Wind Chill: 84° Ceiling: 30000
Heat Index: 91° Visibility: 10mi
Dew Point: 74° Wind: 6mph
Humidity: 72% Direction: 210° (SSW)
Pressure: 29.96in Gusts: 0mph
Raw Report DataKIAH 220253Z 21005KT 10SM FEW120 SCT170 BKN300 29/23 A2996 RMK AO2 SLP144 60036 T02890233 53002
Traffic Incident Summary
Active as of:
Severity:
Category:
InformationThere was an issue retrieving the traffic information for this location. Please try a different location or try again shortly.
Advertisements
Track Severe Weather on mobile